sensor_id;sensor_type;location;lat;lon;timestamp;temperature;humidity
24518;DHT22;12678;51.336;12.406;2022-08-21T00:02:21;22.00;99.90
24518;DHT22;12678;51.336;12.406;2022-08-21T00:04:48;22.00;99.90
24518;DHT22;12678;51.336;12.406;2022-08-21T00:07:14;22.00;99.90
24518;DHT22;12678;51.336;12.406;2022-08-21T00:09:40;22.10;99.90
24518;DHT22;12678;51.336;12.406;2022-08-21T00:12:06;22.10;99.90
24518;DHT22;12678;51.336;12.406;2022-08-21T00:14:31;22.10;99.90
24518;DHT22;12678;51.336;12.406;2022-08-21T00:16:58;22.10;99.90
24518;DHT22;12678;51.336;12.406;2022-08-21T00:19:23;21.90;99.90
24518;DHT22;12678;51.336;12.406;2022-08-21T00:21:53;21.90;99.90
24518;DHT22;12678;51.336;12.406;2022-08-21T00:24:19;21.90;99.90
24518;DHT22;12678;51.336;12.406;2022-08-21T00:26:45;22.00;99.90
24518;DHT22;12678;51.336;12.406;2022-08-21T00:29:11;22.00;99.90
24518;DHT22;12678;51.336;12.406;2022-08-21T00:31:37;22.00;99.90
24518;DHT22;12678;51.336;12.406;2022-08-21T00:34:02;22.00;99.90
24518;DHT22;12678;51.336;12.406;2022-08-21T00:36:28;22.00;99.90
24518;DHT22;12678;51.336;12.406;2022-08-21T00:38:54;22.00;99.90
24518;DHT22;12678;51.336;12.406;2022-08-21T00:41:19;22.10;99.90
24518;DHT22;12678;51.336;12.406;2022-08-21T00:43:45;21.90;99.90
24518;DHT22;12678;51.336;12.406;2022-08-21T00:46:10;21.90;99.90
24518;DHT22;12678;51.336;12.406;2022-08-21T00:48:36;21.90;99.90
24518;DHT22;12678;51.336;12.406;2022-08-21T00:53:27;21.80;99.90
24518;DHT22;12678;51.336;12.406;2022-08-21T00:55:53;21.90;99.90
24518;DHT22;12678;51.336;12.406;2022-08-21T00:58:19;22.00;99.90
24518;DHT22;12678;51.336;12.406;2022-08-21T01:00:46;22.10;99.90
24518;DHT22;12678;51.336;12.406;2022-08-21T01:03:13;22.00;99.90
24518;DHT22;12678;51.336;12.406;2022-08-21T01:05:39;22.00;99.90
24518;DHT22;12678;51.336;12.406;2022-08-21T01:08:05;22.00;99.90
24518;DHT22;12678;51.336;12.406;2022-08-21T01:10:31;22.00;99.90
24518;DHT22;12678;51.336;12.406;2022-08-21T01:12:57;22.00;99.90
24518;DHT22;12678;51.336;12.406;2022-08-21T01:15:24;21.90;99.90
24518;DHT22;12678;51.336;12.406;2022-08-21T01:17:52;21.80;99.90
24518;DHT22;12678;51.336;12.406;2022-08-21T01:20:18;21.90;99.90
24518;DHT22;12678;51.336;12.406;2022-08-21T01:22:44;22.00;99.90
24518;DHT22;12678;51.336;12.406;2022-08-21T01:25:12;22.00;99.90
24518;DHT22;12678;51.336;12.406;2022-08-21T01:27:37;21.90;99.90
24518;DHT22;12678;51.336;12.406;2022-08-21T01:32:32;21.80;99.90
24518;DHT22;12678;51.336;12.406;2022-08-21T01:34:57;21.90;99.90
24518;DHT22;12678;51.336;12.406;2022-08-21T01:37:23;22.00;99.90
24518;DHT22;12678;51.336;12.406;2022-08-21T01:39:48;22.00;99.90
24518;DHT22;12678;51.336;12.406;2022-08-21T01:42:14;21.90;99.90
24518;DHT22;12678;51.336;12.406;2022-08-21T01:44:40;21.90;99.90
24518;DHT22;12678;51.336;12.406;2022-08-21T01:47:06;21.50;99.90
24518;DHT22;12678;51.336;12.406;2022-08-21T01:49:33;21.50;99.90
24518;DHT22;12678;51.336;12.406;2022-08-21T01:51:58;21.50;99.90
24518;DHT22;12678;51.336;12.406;2022-08-21T01:54:24;21.70;99.90
24518;DHT22;12678;51.336;12.406;2022-08-21T01:56:50;21.70;99.90
24518;DHT22;12678;51.336;12.406;2022-08-21T01:59:16;21.70;99.90
24518;DHT22;12678;51.336;12.406;2022-08-21T02:01:41;21.80;99.90
24518;DHT22;12678;51.336;12.406;2022-08-21T02:04:08;21.70;99.90
24518;DHT22;12678;51.336;12.406;2022-08-21T02:06:33;21.80;99.90
24518;DHT22;12678;51.336;12.406;2022-08-21T02:09:00;21.80;99.90
24518;DHT22;12678;51.336;12.406;2022-08-21T02:11:26;21.80;99.90
24518;DHT22;12678;51.336;12.406;2022-08-21T02:13:51;21.90;99.90
24518;DHT22;12678;51.336;12.406;2022-08-21T02:16:17;21.90;99.90
24518;DHT22;12678;51.336;12.406;2022-08-21T02:18:43;21.80;99.90
24518;DHT22;12678;51.336;12.406;2022-08-21T02:21:08;21.80;99.90
24518;DHT22;12678;51.336;12.406;2022-08-21T02:23:34;21.80;99.90
24518;DHT22;12678;51.336;12.406;2022-08-21T02:26:01;21.90;99.90
24518;DHT22;12678;51.336;12.406;2022-08-21T02:28:27;21.90;99.90
24518;DHT22;12678;51.336;12.406;2022-08-21T02:30:52;21.90;99.90
24518;DHT22;12678;51.336;12.406;2022-08-21T02:33:18;21.90;99.90
24518;DHT22;12678;51.336;12.406;2022-08-21T02:35:44;21.80;99.90
24518;DHT22;12678;51.336;12.406;2022-08-21T02:38:14;21.80;99.90
24518;DHT22;12678;51.336;12.406;2022-08-21T02:40:40;21.80;99.90
24518;DHT22;12678;51.336;12.406;2022-08-21T02:43:06;21.70;99.90
24518;DHT22;12678;51.336;12.406;2022-08-21T02:45:32;21.80;99.90
24518;DHT22;12678;51.336;12.406;2022-08-21T02:47:59;21.70;99.90
24518;DHT22;12678;51.336;12.406;2022-08-21T02:50:27;21.70;99.90
24518;DHT22;12678;51.336;12.406;2022-08-21T02:52:53;21.80;99.90
24518;DHT22;12678;51.336;12.406;2022-08-21T02:55:19;21.80;99.90
24518;DHT22;12678;51.336;12.406;2022-08-21T02:57:45;21.90;99.90
24518;DHT22;12678;51.336;12.406;2022-08-21T03:00:11;21.90;99.90
24518;DHT22;12678;51.336;12.406;2022-08-21T03:02:38;21.90;99.90
24518;DHT22;12678;51.336;12.406;2022-08-21T03:05:05;21.90;99.90
24518;DHT22;12678;51.336;12.406;2022-08-21T03:07:30;21.90;99.90
24518;DHT22;12678;51.336;12.406;2022-08-21T03:09:56;21.90;99.90
24518;DHT22;12678;51.336;12.406;2022-08-21T03:12:22;21.90;99.90
24518;DHT22;12678;51.336;12.406;2022-08-21T03:14:47;21.80;99.90
24518;DHT22;12678;51.336;12.406;2022-08-21T03:17:12;21.80;99.90
24518;DHT22;12678;51.336;12.406;2022-08-21T03:19:38;21.90;99.90
24518;DHT22;12678;51.336;12.406;2022-08-21T03:22:04;21.80;99.90
24518;DHT22;12678;51.336;12.406;2022-08-21T03:24:30;21.70;99.90
24518;DHT22;12678;51.336;12.406;2022-08-21T03:26:58;21.50;99.90
24518;DHT22;12678;51.336;12.406;2022-08-21T03:29:23;21.60;99.90
24518;DHT22;12678;51.336;12.406;2022-08-21T03:31:49;21.60;99.90
24518;DHT22;12678;51.336;12.406;2022-08-21T03:34:14;21.40;99.90
24518;DHT22;12678;51.336;12.406;2022-08-21T03:36:40;21.20;99.90
24518;DHT22;12678;51.336;12.406;2022-08-21T03:39:05;21.40;99.90
24518;DHT22;12678;51.336;12.406;2022-08-21T03:41:31;21.50;99.90
24518;DHT22;12678;51.336;12.406;2022-08-21T03:43:56;21.50;99.90
24518;DHT22;12678;51.336;12.406;2022-08-21T03:46:22;21.60;99.90
24518;DHT22;12678;51.336;12.406;2022-08-21T03:48:47;21.70;99.90
24518;DHT22;12678;51.336;12.406;2022-08-21T03:51:13;21.70;99.90
24518;DHT22;12678;51.336;12.406;2022-08-21T03:53:38;21.70;99.90
24518;DHT22;12678;51.336;12.406;2022-08-21T03:56:04;21.70;99.90
24518;DHT22;12678;51.336;12.406;2022-08-21T03:58:30;21.80;99.90
24518;DHT22;12678;51.336;12.406;2022-08-21T04:00:57;21.80;99.90
24518;DHT22;12678;51.336;12.406;2022-08-21T04:03:23;21.80;99.90
24518;DHT22;12678;51.336;12.406;2022-08-21T04:05:49;21.70;99.90
24518;DHT22;12678;51.336;12.406;2022-08-21T04:08:16;21.70;99.90
24518;DHT22;12678;51.336;12.406;2022-08-21T04:10:44;21.80;99.90
24518;DHT22;12678;51.336;12.406;2022-08-21T04:13:10;21.70;99.90
24518;DHT22;12678;51.336;12.406;2022-08-21T04:15:35;21.80;99.90
24518;DHT22;12678;51.336;12.406;2022-08-21T04:18:01;21.80;99.90
24518;DHT22;12678;51.336;12.406;2022-08-21T04:20:27;21.70;99.90
24518;DHT22;12678;51.336;12.406;2022-08-21T04:22:52;21.70;99.90
24518;DHT22;12678;51.336;12.406;2022-08-21T04:25:19;21.60;99.90
24518;DHT22;12678;51.336;12.406;2022-08-21T04:27:45;21.70;99.90
24518;DHT22;12678;51.336;12.406;2022-08-21T04:30:11;21.60;99.90
24518;DHT22;12678;51.336;12.406;2022-08-21T04:32:38;21.50;99.90
24518;DHT22;12678;51.336;12.406;2022-08-21T04:35:05;21.40;99.90
24518;DHT22;12678;51.336;12.406;2022-08-21T04:37:31;21.50;99.90
24518;DHT22;12678;51.336;12.406;2022-08-21T04:39:56;21.50;99.90
24518;DHT22;12678;51.336;12.406;2022-08-21T04:42:24;21.60;99.90
24518;DHT22;12678;51.336;12.406;2022-08-21T04:44:50;21.60;99.90
24518;DHT22;12678;51.336;12.406;2022-08-21T04:47:16;21.60;99.90
24518;DHT22;12678;51.336;12.406;2022-08-21T04:49:42;21.50;99.90
24518;DHT22;12678;51.336;12.406;2022-08-21T04:52:07;21.50;99.90
24518;DHT22;12678;51.336;12.406;2022-08-21T04:54:33;21.50;99.90
24518;DHT22;12678;51.336;12.406;2022-08-21T04:56:59;21.60;99.90
24518;DHT22;12678;51.336;12.406;2022-08-21T04:59:33;21.50;99.90
24518;DHT22;12678;51.336;12.406;2022-08-21T05:02:00;21.50;99.90
24518;DHT22;12678;51.336;12.406;2022-08-21T05:04:28;21.60;99.90
24518;DHT22;12678;51.336;12.406;2022-08-21T05:06:56;21.50;99.90
24518;DHT22;12678;51.336;12.406;2022-08-21T05:09:22;21.30;99.90
24518;DHT22;12678;51.336;12.406;2022-08-21T05:11:49;21.50;99.90
24518;DHT22;12678;51.336;12.406;2022-08-21T05:14:15;21.60;99.90
24518;DHT22;12678;51.336;12.406;2022-08-21T05:16:41;21.70;99.90
24518;DHT22;12678;51.336;12.406;2022-08-21T05:19:07;21.70;99.90
24518;DHT22;12678;51.336;12.406;2022-08-21T05:21:33;21.70;99.90
24518;DHT22;12678;51.336;12.406;2022-08-21T05:23:59;21.50;99.90
24518;DHT22;12678;51.336;12.406;2022-08-21T05:26:25;21.60;99.90
24518;DHT22;12678;51.336;12.406;2022-08-21T05:28:50;21.60;99.90
24518;DHT22;12678;51.336;12.406;2022-08-21T05:31:15;21.60;99.90
24518;DHT22;12678;51.336;12.406;2022-08-21T05:33:41;21.70;99.90
24518;DHT22;12678;51.336;12.406;2022-08-21T05:36:07;21.50;99.90
24518;DHT22;12678;51.336;12.406;2022-08-21T05:38:32;21.60;99.90
24518;DHT22;12678;51.336;12.406;2022-08-21T05:40:58;21.70;99.90
24518;DHT22;12678;51.336;12.406;2022-08-21T05:43:23;21.60;99.90
24518;DHT22;12678;51.336;12.406;2022-08-21T05:45:49;21.80;99.90
24518;DHT22;12678;51.336;12.406;2022-08-21T05:48:16;21.90;99.90
24518;DHT22;12678;51.336;12.406;2022-08-21T05:50:42;21.90;99.90
24518;DHT22;12678;51.336;12.406;2022-08-21T05:53:08;21.90;99.90
24518;DHT22;12678;51.336;12.406;2022-08-21T05:55:35;21.90;99.90
24518;DHT22;12678;51.336;12.406;2022-08-21T05:58:01;21.90;99.90
24518;DHT22;12678;51.336;12.406;2022-08-21T06:00:26;21.80;99.90
24518;DHT22;12678;51.336;12.406;2022-08-21T06:02:52;21.90;99.90
24518;DHT22;12678;51.336;12.406;2022-08-21T06:05:17;21.90;99.90
24518;DHT22;12678;51.336;12.406;2022-08-21T06:07:43;22.00;99.90
24518;DHT22;12678;51.336;12.406;2022-08-21T06:10:09;22.00;99.90
24518;DHT22;12678;51.336;12.406;2022-08-21T06:12:34;21.80;99.90
24518;DHT22;12678;51.336;12.406;2022-08-21T06:15:00;21.80;99.90
24518;DHT22;12678;51.336;12.406;2022-08-21T06:17:25;21.90;99.90
24518;DHT22;12678;51.336;12.406;2022-08-21T06:19:51;22.00;99.90
24518;DHT22;12678;51.336;12.406;2022-08-21T06:22:17;22.10;99.90
24518;DHT22;12678;51.336;12.406;2022-08-21T06:24:43;22.00;99.90
24518;DHT22;12678;51.336;12.406;2022-08-21T06:27:09;22.00;99.90
24518;DHT22;12678;51.336;12.406;2022-08-21T06:29:34;22.00;99.90
24518;DHT22;12678;51.336;12.406;2022-08-21T06:32:00;22.00;99.90
24518;DHT22;12678;51.336;12.406;2022-08-21T06:34:26;22.00;99.90
24518;DHT22;12678;51.336;12.406;2022-08-21T06:36:52;21.90;99.90
24518;DHT22;12678;51.336;12.406;2022-08-21T06:39:21;21.70;99.90
24518;DHT22;12678;51.336;12.406;2022-08-21T06:41:46;21.90;99.90
24518;DHT22;12678;51.336;12.406;2022-08-21T06:44:12;21.60;99.90
24518;DHT22;12678;51.336;12.406;2022-08-21T06:46:40;21.60;99.90
24518;DHT22;12678;51.336;12.406;2022-08-21T06:49:06;21.50;99.90
24518;DHT22;12678;51.336;12.406;2022-08-21T06:51:31;21.60;99.90
24518;DHT22;12678;51.336;12.406;2022-08-21T06:53:57;21.80;99.90
24518;DHT22;12678;51.336;12.406;2022-08-21T06:56:22;21.80;99.90
24518;DHT22;12678;51.336;12.406;2022-08-21T06:58:48;21.60;99.90
24518;DHT22;12678;51.336;12.406;2022-08-21T07:01:13;21.70;99.90
24518;DHT22;12678;51.336;12.406;2022-08-21T07:03:40;21.80;99.90
24518;DHT22;12678;51.336;12.406;2022-08-21T07:06:06;21.80;99.90
24518;DHT22;12678;51.336;12.406;2022-08-21T07:08:32;21.90;99.90
24518;DHT22;12678;51.336;12.406;2022-08-21T07:10:58;21.80;99.90
24518;DHT22;12678;51.336;12.406;2022-08-21T07:13:25;21.80;99.90
24518;DHT22;12678;51.336;12.406;2022-08-21T07:15:50;22.00;99.90
24518;DHT22;12678;51.336;12.406;2022-08-21T07:18:16;22.10;99.90
24518;DHT22;12678;51.336;12.406;2022-08-21T07:20:42;22.20;99.90
24518;DHT22;12678;51.336;12.406;2022-08-21T07:23:13;22.30;99.90
24518;DHT22;12678;51.336;12.406;2022-08-21T07:25:40;22.40;99.90
24518;DHT22;12678;51.336;12.406;2022-08-21T07:28:06;22.40;99.90
24518;DHT22;12678;51.336;12.406;2022-08-21T07:30:31;22.40;99.90
24518;DHT22;12678;51.336;12.406;2022-08-21T07:32:57;22.40;99.90
24518;DHT22;12678;51.336;12.406;2022-08-21T07:35:22;22.50;99.90
24518;DHT22;12678;51.336;12.406;2022-08-21T07:37:48;22.70;99.90
24518;DHT22;12678;51.336;12.406;2022-08-21T07:40:14;22.80;99.90
24518;DHT22;12678;51.336;12.406;2022-08-21T07:42:44;22.70;99.90
24518;DHT22;12678;51.336;12.406;2022-08-21T07:45:11;22.60;99.90
24518;DHT22;12678;51.336;12.406;2022-08-21T07:47:37;22.50;99.90
24518;DHT22;12678;51.336;12.406;2022-08-21T07:50:03;22.40;99.90
24518;DHT22;12678;51.336;12.406;2022-08-21T07:52:29;22.30;99.90
24518;DHT22;12678;51.336;12.406;2022-08-21T07:54:54;22.30;99.90
24518;DHT22;12678;51.336;12.406;2022-08-21T07:57:20;22.30;99.90
24518;DHT22;12678;51.336;12.406;2022-08-21T07:59:45;22.40;99.90
24518;DHT22;12678;51.336;12.406;2022-08-21T08:02:20;22.20;99.90
24518;DHT22;12678;51.336;12.406;2022-08-21T08:04:46;22.30;99.90
24518;DHT22;12678;51.336;12.406;2022-08-21T08:07:11;22.70;99.90
24518;DHT22;12678;51.336;12.406;2022-08-21T08:09:37;22.80;99.90
24518;DHT22;12678;51.336;12.406;2022-08-21T08:12:02;23.00;99.90
24518;DHT22;12678;51.336;12.406;2022-08-21T08:14:29;23.10;99.90
24518;DHT22;12678;51.336;12.406;2022-08-21T08:16:54;23.20;99.90
24518;DHT22;12678;51.336;12.406;2022-08-21T08:19:20;23.10;99.90
24518;DHT22;12678;51.336;12.406;2022-08-21T08:21:45;23.10;99.90
24518;DHT22;12678;51.336;12.406;2022-08-21T08:24:11;23.10;99.90
24518;DHT22;12678;51.336;12.406;2022-08-21T08:26:36;22.90;99.90
24518;DHT22;12678;51.336;12.406;2022-08-21T08:29:02;22.80;99.90
24518;DHT22;12678;51.336;12.406;2022-08-21T08:31:28;22.60;99.90
24518;DHT22;12678;51.336;12.406;2022-08-21T08:33:53;22.70;99.90
24518;DHT22;12678;51.336;12.406;2022-08-21T08:36:19;22.70;99.90
24518;DHT22;12678;51.336;12.406;2022-08-21T08:38:45;22.60;99.90
24518;DHT22;12678;51.336;12.406;2022-08-21T08:43:40;23.00;99.90
24518;DHT22;12678;51.336;12.406;2022-08-21T08:46:08;23.40;99.90
24518;DHT22;12678;51.336;12.406;2022-08-21T08:51:13;24.00;99.90
24518;DHT22;12678;51.336;12.406;2022-08-21T08:53:50;24.10;99.90
24518;DHT22;12678;51.336;12.406;2022-08-21T08:56:18;24.30;99.90
24518;DHT22;12678;51.336;12.406;2022-08-21T08:58:46;24.00;99.90
24518;DHT22;12678;51.336;12.406;2022-08-21T09:01:16;24.00;99.90
24518;DHT22;12678;51.336;12.406;2022-08-21T09:03:42;24.20;99.90
24518;DHT22;12678;51.336;12.406;2022-08-21T09:08:50;24.30;99.90
24518;DHT22;12678;51.336;12.406;2022-08-21T09:16:19;24.30;99.90
24518;DHT22;12678;51.336;12.406;2022-08-21T09:21:49;23.40;98.70
24518;DHT22;12678;51.336;12.406;2022-08-21T09:24:38;23.30;99.90
24518;DHT22;12678;51.336;12.406;2022-08-21T09:29:33;23.60;99.90
24518;DHT22;12678;51.336;12.406;2022-08-21T09:31:59;23.80;99.90
24518;DHT22;12678;51.336;12.406;2022-08-21T09:34:26;23.80;99.90
24518;DHT22;12678;51.336;12.406;2022-08-21T09:36:51;24.00;99.90
24518;DHT22;12678;51.336;12.406;2022-08-21T09:41:55;24.20;99.90
24518;DHT22;12678;51.336;12.406;2022-08-21T09:44:24;24.30;99.90
24518;DHT22;12678;51.336;12.406;2022-08-21T09:46:51;24.10;98.90
24518;DHT22;12678;51.336;12.406;2022-08-21T09:49:26;23.70;99.30
24518;DHT22;12678;51.336;12.406;2022-08-21T09:51:51;23.60;99.70
24518;DHT22;12678;51.336;12.406;2022-08-21T09:54:18;23.50;99.80
24518;DHT22;12678;51.336;12.406;2022-08-21T09:59:40;23.60;99.90
24518;DHT22;12678;51.336;12.406;2022-08-21T10:04:48;23.90;99.90
24518;DHT22;12678;51.336;12.406;2022-08-21T10:07:14;24.00;99.90
24518;DHT22;12678;51.336;12.406;2022-08-21T10:09:40;24.00;99.90
24518;DHT22;12678;51.336;12.406;2022-08-21T10:14:39;24.10;99.90
24518;DHT22;12678;51.336;12.406;2022-08-21T10:17:18;23.90;98.40
24518;DHT22;12678;51.336;12.406;2022-08-21T10:19:55;23.70;99.60
24518;DHT22;12678;51.336;12.406;2022-08-21T10:22:37;23.80;99.90
24518;DHT22;12678;51.336;12.406;2022-08-21T10:33:12;23.90;98.80
24518;DHT22;12678;51.336;12.406;2022-08-21T10:35:49;23.70;97.80
24518;DHT22;12678;51.336;12.406;2022-08-21T10:38:53;23.70;97.30
24518;DHT22;12678;51.336;12.406;2022-08-21T10:43:45;23.80;96.80
24518;DHT22;12678;51.336;12.406;2022-08-21T10:46:32;24.10;98.30
24518;DHT22;12678;51.336;12.406;2022-08-21T10:54:04;24.10;96.90
24518;DHT22;12678;51.336;12.406;2022-08-21T10:56:31;24.10;97.30
24518;DHT22;12678;51.336;12.406;2022-08-21T11:04:20;24.50;95.90
24518;DHT22;12678;51.336;12.406;2022-08-21T11:07:12;24.50;95.50
24518;DHT22;12678;51.336;12.406;2022-08-21T11:09:34;24.60;94.30
24518;DHT22;12678;51.336;12.406;2022-08-21T11:12:03;24.80;94.50
24518;DHT22;12678;51.336;12.406;2022-08-21T11:17:05;24.80;95.00
24518;DHT22;12678;51.336;12.406;2022-08-21T11:19:34;24.80;94.60
24518;DHT22;12678;51.336;12.406;2022-08-21T11:22:15;24.80;93.40
24518;DHT22;12678;51.336;12.406;2022-08-21T11:27:51;24.40;93.50
24518;DHT22;12678;51.336;12.406;2022-08-21T11:30:18;24.20;93.50
24518;DHT22;12678;51.336;12.406;2022-08-21T11:37:59;24.10;93.40
24518;DHT22;12678;51.336;12.406;2022-08-21T11:48:20;24.00;93.60
24518;DHT22;12678;51.336;12.406;2022-08-21T11:50:47;23.90;93.70
24518;DHT22;12678;51.336;12.406;2022-08-21T11:53:18;23.80;93.80
24518;DHT22;12678;51.336;12.406;2022-08-21T11:55:49;24.00;94.60
24518;DHT22;12678;51.336;12.406;2022-08-21T12:00:48;24.20;93.20
24518;DHT22;12678;51.336;12.406;2022-08-21T12:05:53;24.00;93.80
24518;DHT22;12678;51.336;12.406;2022-08-21T12:08:33;23.90;92.60
24518;DHT22;12678;51.336;12.406;2022-08-21T12:13:28;23.90;93.10
24518;DHT22;12678;51.336;12.406;2022-08-21T12:16:07;23.90;93.80
24518;DHT22;12678;51.336;12.406;2022-08-21T12:18:33;23.90;93.40
24518;DHT22;12678;51.336;12.406;2022-08-21T12:23:32;23.90;95.70
24518;DHT22;12678;51.336;12.406;2022-08-21T12:28:39;24.00;94.30
24518;DHT22;12678;51.336;12.406;2022-08-21T12:31:16;24.10;95.80
24518;DHT22;12678;51.336;12.406;2022-08-21T12:33:42;24.20;94.00
24518;DHT22;12678;51.336;12.406;2022-08-21T12:36:12;24.20;95.20
24518;DHT22;12678;51.336;12.406;2022-08-21T12:38:47;24.40;94.90
24518;DHT22;12678;51.336;12.406;2022-08-21T12:41:20;24.50;95.60
24518;DHT22;12678;51.336;12.406;2022-08-21T12:46:51;24.70;94.60
24518;DHT22;12678;51.336;12.406;2022-08-21T12:49:28;24.70;92.90
24518;DHT22;12678;51.336;12.406;2022-08-21T12:54:29;24.70;92.90
24518;DHT22;12678;51.336;12.406;2022-08-21T12:56:56;24.30;93.10
24518;DHT22;12678;51.336;12.406;2022-08-21T12:59:22;24.20;94.10
24518;DHT22;12678;51.336;12.406;2022-08-21T13:01:49;24.20;94.20
24518;DHT22;12678;51.336;12.406;2022-08-21T13:04:17;24.20;95.10
24518;DHT22;12678;51.336;12.406;2022-08-21T13:06:46;24.30;96.00
24518;DHT22;12678;51.336;12.406;2022-08-21T13:09:16;24.30;95.00
24518;DHT22;12678;51.336;12.406;2022-08-21T13:11:42;24.40;95.50
24518;DHT22;12678;51.336;12.406;2022-08-21T13:16:56;24.60;93.80
24518;DHT22;12678;51.336;12.406;2022-08-21T13:19:22;24.60;93.70
24518;DHT22;12678;51.336;12.406;2022-08-21T13:21:48;24.60;93.70
24518;DHT22;12678;51.336;12.406;2022-08-21T13:24:15;24.60;93.60
24518;DHT22;12678;51.336;12.406;2022-08-21T13:26:41;24.60;93.10
24518;DHT22;12678;51.336;12.406;2022-08-21T13:29:07;24.60;93.70
24518;DHT22;12678;51.336;12.406;2022-08-21T13:31:35;24.50;93.20
24518;DHT22;12678;51.336;12.406;2022-08-21T13:34:01;24.70;94.50
24518;DHT22;12678;51.336;12.406;2022-08-21T13:36:29;24.60;92.50
24518;DHT22;12678;51.336;12.406;2022-08-21T13:38:55;24.50;93.30
24518;DHT22;12678;51.336;12.406;2022-08-21T13:41:26;24.50;94.10
24518;DHT22;12678;51.336;12.406;2022-08-21T13:43:57;24.50;93.40
24518;DHT22;12678;51.336;12.406;2022-08-21T13:46:24;24.40;95.30
24518;DHT22;12678;51.336;12.406;2022-08-21T13:48:49;24.40;96.10
24518;DHT22;12678;51.336;12.406;2022-08-21T13:51:15;24.40;95.40
24518;DHT22;12678;51.336;12.406;2022-08-21T13:56:06;24.50;94.90
24518;DHT22;12678;51.336;12.406;2022-08-21T13:58:33;24.50;95.40
24518;DHT22;12678;51.336;12.406;2022-08-21T14:01:15;24.50;93.50
24518;DHT22;12678;51.336;12.406;2022-08-21T14:03:42;24.50;93.40
24518;DHT22;12678;51.336;12.406;2022-08-21T14:06:17;24.50;92.90
24518;DHT22;12678;51.336;12.406;2022-08-21T14:08:47;24.50;93.90
24518;DHT22;12678;51.336;12.406;2022-08-21T14:11:14;24.50;92.60
24518;DHT22;12678;51.336;12.406;2022-08-21T14:13:41;24.50;93.20
24518;DHT22;12678;51.336;12.406;2022-08-21T14:16:26;24.50;94.60
24518;DHT22;12678;51.336;12.406;2022-08-21T14:21:28;24.40;93.80
24518;DHT22;12678;51.336;12.406;2022-08-21T14:24:05;24.30;95.60
24518;DHT22;12678;51.336;12.406;2022-08-21T14:26:32;24.40;95.30
24518;DHT22;12678;51.336;12.406;2022-08-21T14:28:58;24.40;95.40
24518;DHT22;12678;51.336;12.406;2022-08-21T14:31:27;24.50;95.70
24518;DHT22;12678;51.336;12.406;2022-08-21T14:33:54;24.60;95.10
24518;DHT22;12678;51.336;12.406;2022-08-21T14:36:19;24.60;95.00
24518;DHT22;12678;51.336;12.406;2022-08-21T14:38:45;24.70;95.00
24518;DHT22;12678;51.336;12.406;2022-08-21T14:41:13;24.70;94.90
24518;DHT22;12678;51.336;12.406;2022-08-21T14:43:41;24.60;95.00
24518;DHT22;12678;51.336;12.406;2022-08-21T14:46:06;24.70;94.40
24518;DHT22;12678;51.336;12.406;2022-08-21T14:48:32;24.60;94.40
24518;DHT22;12678;51.336;12.406;2022-08-21T14:50:58;24.50;94.20
24518;DHT22;12678;51.336;12.406;2022-08-21T14:53:24;24.50;94.40
24518;DHT22;12678;51.336;12.406;2022-08-21T14:55:49;24.40;93.90
24518;DHT22;12678;51.336;12.406;2022-08-21T14:58:29;24.50;94.80
24518;DHT22;12678;51.336;12.406;2022-08-21T15:00:55;24.40;93.40
24518;DHT22;12678;51.336;12.406;2022-08-21T15:03:23;24.30;94.50
24518;DHT22;12678;51.336;12.406;2022-08-21T15:05:48;24.30;92.80
24518;DHT22;12678;51.336;12.406;2022-08-21T15:08:15;24.30;92.60
24518;DHT22;12678;51.336;12.406;2022-08-21T15:10:40;24.30;93.00
24518;DHT22;12678;51.336;12.406;2022-08-21T15:13:06;24.40;92.80
24518;DHT22;12678;51.336;12.406;2022-08-21T15:15:33;24.30;93.50
24518;DHT22;12678;51.336;12.406;2022-08-21T15:17:59;24.30;93.00
24518;DHT22;12678;51.336;12.406;2022-08-21T15:20:25;24.30;92.80
24518;DHT22;12678;51.336;12.406;2022-08-21T15:22:50;24.30;94.40
24518;DHT22;12678;51.336;12.406;2022-08-21T15:25:16;24.20;94.30
24518;DHT22;12678;51.336;12.406;2022-08-21T15:27:41;24.20;93.10
24518;DHT22;12678;51.336;12.406;2022-08-21T15:30:07;24.20;93.00
24518;DHT22;12678;51.336;12.406;2022-08-21T15:32:32;24.20;94.30
24518;DHT22;12678;51.336;12.406;2022-08-21T15:34:58;24.20;94.60
24518;DHT22;12678;51.336;12.406;2022-08-21T15:37:24;24.20;93.60
24518;DHT22;12678;51.336;12.406;2022-08-21T15:39:50;24.10;93.40
24518;DHT22;12678;51.336;12.406;2022-08-21T15:42:15;24.10;93.60
24518;DHT22;12678;51.336;12.406;2022-08-21T15:44:41;24.10;93.40
24518;DHT22;12678;51.336;12.406;2022-08-21T15:47:42;24.10;94.50
24518;DHT22;12678;51.336;12.406;2022-08-21T15:49:59;24.10;94.40
24518;DHT22;12678;51.336;12.406;2022-08-21T15:52:25;24.10;94.70
24518;DHT22;12678;51.336;12.406;2022-08-21T15:54:51;24.00;94.50
24518;DHT22;12678;51.336;12.406;2022-08-21T15:57:20;24.00;95.10
24518;DHT22;12678;51.336;12.406;2022-08-21T15:59:47;23.90;93.60
24518;DHT22;12678;51.336;12.406;2022-08-21T16:02:17;23.90;95.00
24518;DHT22;12678;51.336;12.406;2022-08-21T16:04:44;23.90;95.30
24518;DHT22;12678;51.336;12.406;2022-08-21T16:07:10;23.90;93.80
24518;DHT22;12678;51.336;12.406;2022-08-21T16:09:36;23.80;94.40
24518;DHT22;12678;51.336;12.406;2022-08-21T16:12:02;23.90;94.30
24518;DHT22;12678;51.336;12.406;2022-08-21T16:14:28;23.90;93.60
24518;DHT22;12678;51.336;12.406;2022-08-21T16:16:54;23.90;95.50
24518;DHT22;12678;51.336;12.406;2022-08-21T16:19:20;23.80;93.20
24518;DHT22;12678;51.336;12.406;2022-08-21T16:21:46;23.90;94.00
24518;DHT22;12678;51.336;12.406;2022-08-21T16:24:11;23.90;92.80
24518;DHT22;12678;51.336;12.406;2022-08-21T16:26:37;23.90;92.30
24518;DHT22;12678;51.336;12.406;2022-08-21T16:29:03;23.80;93.40
24518;DHT22;12678;51.336;12.406;2022-08-21T16:31:28;23.90;92.80
24518;DHT22;12678;51.336;12.406;2022-08-21T16:33:55;23.80;94.10
24518;DHT22;12678;51.336;12.406;2022-08-21T16:36:21;23.80;94.50
24518;DHT22;12678;51.336;12.406;2022-08-21T16:38:46;23.80;92.40
24518;DHT22;12678;51.336;12.406;2022-08-21T16:41:13;23.80;93.20
24518;DHT22;12678;51.336;12.406;2022-08-21T16:43:40;23.90;93.50
24518;DHT22;12678;51.336;12.406;2022-08-21T16:46:07;23.80;93.30
24518;DHT22;12678;51.336;12.406;2022-08-21T16:48:33;23.80;94.10
24518;DHT22;12678;51.336;12.406;2022-08-21T16:50:59;23.80;93.20
24518;DHT22;12678;51.336;12.406;2022-08-21T16:53:24;23.80;93.20
24518;DHT22;12678;51.336;12.406;2022-08-21T16:55:50;23.70;93.00